Stumpy Point, North Carolina
Current Conditions -  °F | °C
As of 11:56 AM on Sunday 23 Nov 2014 (Local Time) from K2DP Reporting Station
Light Rain Light Rain  
Wind Chill: 58°   Ceiling: 4500
Heat Index: 58°   Visibility: 10mi
Dew Point: 56°   Wind: 3mph
Humidity: 90%   Direction: 100°E
Pressure: 30.23"   Gusts: NA
Location:  35.7°N, 75.74°W
Report Text: K2DP 231656Z AUTO 10003KT 10SM -RA BKN045 15/13 A3023 RMK AO2 PRESFR SLPNO P0001 T01470131
Loading
Personal Weather Stations






























Interactive Weather Map New forecast layout! Learn more

10-Day Weather Forecast

Advertisements
Track Severe Weather on mobile